createdAt,value
2024-02-12T00:01:42.004Z,76.08
2024-02-12T00:04:08.625Z,75.32
2024-02-12T00:06:36.394Z,76.75
2024-02-12T00:09:06.554Z,76.28
2024-02-12T00:11:33.217Z,76.20
2024-02-12T00:14:01.200Z,76.67
2024-02-12T00:16:27.672Z,75.78
2024-02-12T00:18:54.180Z,76.54
2024-02-12T00:21:20.758Z,76.93
2024-02-12T00:23:47.791Z,75.82
2024-02-12T00:26:15.294Z,77.01
2024-02-12T00:28:42.601Z,76.38
2024-02-12T00:31:13.635Z,76.73
2024-02-12T00:33:41.642Z,76.49
2024-02-12T00:36:10.478Z,76.24
2024-02-12T00:38:40.693Z,77.54
2024-02-12T00:41:15.726Z,77.78
2024-02-12T00:43:43.433Z,76.17
2024-02-12T00:46:10.303Z,76.53
2024-02-12T00:48:37.708Z,77.02
2024-02-12T00:51:04.322Z,76.85
2024-02-12T00:53:30.942Z,76.82
2024-02-12T00:55:58.796Z,76.02
2024-02-12T00:58:25.345Z,77.02
2024-02-12T01:00:51.729Z,77.66
2024-02-12T01:03:18.338Z,77.09
2024-02-12T01:05:45.111Z,77.70
2024-02-12T01:08:11.637Z,77.24
2024-02-12T01:10:38.108Z,77.06
2024-02-12T01:13:04.560Z,77.38
2024-02-12T01:15:31.946Z,77.03
2024-02-12T01:18:09.472Z,77.12
2024-02-12T01:20:37.785Z,75.97
2024-02-12T01:23:04.608Z,77.39
2024-02-12T01:25:31.885Z,76.04
2024-02-12T01:28:01.244Z,76.46
2024-02-12T01:30:28.088Z,78.26
2024-02-12T01:32:55.264Z,77.47
2024-02-12T01:35:21.937Z,77.44
2024-02-12T01:37:48.366Z,77.46
2024-02-12T01:40:15.016Z,76.85
2024-02-12T01:42:41.548Z,77.89
2024-02-12T01:45:16.941Z,77.79
2024-02-12T01:47:45.311Z,76.94
2024-02-12T01:50:13.450Z,76.75
2024-02-12T01:52:50.847Z,77.86
2024-02-12T01:55:19.597Z,76.68
2024-02-12T01:57:51.430Z,77.58
2024-02-12T02:00:18.906Z,77.14
2024-02-12T02:02:46.041Z,77.61
2024-02-12T02:05:17.165Z,76.24
2024-02-12T02:07:46.055Z,76.63
2024-02-12T02:10:16.065Z,76.58
2024-02-12T02:12:43.830Z,76.75
2024-02-12T02:15:10.804Z,76.14
2024-02-12T02:17:37.493Z,76.25
2024-02-12T02:20:08.238Z,76.94
2024-02-12T02:22:35.492Z,76.17
2024-02-12T02:25:01.898Z,77.09
2024-02-12T02:27:28.779Z,75.94
2024-02-12T02:29:55.210Z,77.24
2024-02-12T02:32:23.006Z,76.99
2024-02-12T02:34:49.608Z,76.13
2024-02-12T02:37:16.856Z,76.57
2024-02-12T02:39:43.246Z,75.69
2024-02-12T02:42:12.732Z,76.79
2024-02-12T02:44:40.201Z,76.91
2024-02-12T02:47:07.092Z,76.51
2024-02-12T02:49:33.768Z,76.39
2024-02-12T02:52:00.247Z,77.29
2024-02-12T02:54:26.621Z,77.19
2024-02-12T02:56:53.403Z,76.97
2024-02-12T02:59:20.056Z,77.09
2024-02-12T03:01:46.595Z,77.55
2024-02-12T03:04:15.444Z,76.86
2024-02-12T03:06:42.266Z,77.25
2024-02-12T03:09:08.823Z,77.15
2024-02-12T03:11:38.822Z,77.44
2024-02-12T03:14:05.456Z,77.22
2024-02-12T03:16:33.730Z,75.65
2024-02-12T03:19:01.193Z,76.09
2024-02-12T03:21:27.770Z,75.71
2024-02-12T03:23:58.262Z,76.20
2024-02-12T03:26:24.710Z,76.36
2024-02-12T03:28:52.171Z,77.13
2024-02-12T03:31:18.605Z,75.46
2024-02-12T03:33:50.207Z,76.86
2024-02-12T03:36:17.126Z,76.11
2024-02-12T03:38:43.590Z,76.59
2024-02-12T03:41:18.043Z,76.86
2024-02-12T03:43:44.496Z,76.63
2024-02-12T03:46:19.190Z,75.91
2024-02-12T03:49:04.868Z,75.83
2024-02-12T03:51:50.336Z,76.65
2024-02-12T03:57:23.612Z,75.36
2024-02-12T03:59:52.711Z,75.24
2024-02-12T04:02:20.079Z,75.75
2024-02-12T04:04:46.744Z,75.17
2024-02-12T04:07:14.395Z,75.71
2024-02-12T04:09:43.051Z,76.90
2024-02-12T04:12:14.444Z,76.20
2024-02-12T04:14:43.311Z,75.94
2024-02-12T04:17:10.977Z,76.06
2024-02-12T04:19:38.078Z,75.85
2024-02-12T04:22:10.797Z,76.36
2024-02-12T04:24:44.517Z,75.71
2024-02-12T04:27:11.538Z,76.26
2024-02-12T04:29:41.233Z,76.05
2024-02-12T04:32:13.670Z,76.12
2024-02-12T04:34:41.780Z,76.54
2024-02-12T04:37:10.770Z,75.29
2024-02-12T04:39:37.945Z,75.47
2024-02-12T04:42:05.304Z,76.92
2024-02-12T04:44:32.109Z,75.85
2024-02-12T04:47:01.909Z,76.01
2024-02-12T04:49:29.022Z,77.49
2024-02-12T04:51:55.714Z,76.36
2024-02-12T04:54:24.333Z,77.48
2024-02-12T04:56:50.989Z,76.99
2024-02-12T04:59:19.579Z,76.59
2024-02-12T05:01:46.605Z,75.58
2024-02-12T05:04:13.196Z,76.94
2024-02-12T05:06:39.707Z,77.04
2024-02-12T05:09:06.795Z,77.14
2024-02-12T05:11:33.556Z,75.49
2024-02-12T05:14:00.193Z,75.48
2024-02-12T05:16:33.624Z,75.58
2024-02-12T05:19:19.775Z,75.47
2024-02-12T05:22:05.080Z,75.84
2024-02-12T05:24:32.048Z,76.17
2024-02-12T05:26:59.102Z,75.54
2024-02-12T05:29:26.544Z,76.81
2024-02-12T05:31:53.224Z,75.52
2024-02-12T05:34:24.541Z,76.94
2024-02-12T05:36:56.078Z,74.87
2024-02-12T05:39:23.161Z,75.66
2024-02-12T05:41:50.062Z,75.71
2024-02-12T05:44:17.221Z,75.77
2024-02-12T05:46:43.694Z,75.88
2024-02-12T05:49:13.985Z,75.18
2024-02-12T05:51:40.600Z,75.44
2024-02-12T05:54:07.161Z,74.92
2024-02-12T05:56:35.383Z,75.40
2024-02-12T05:59:01.818Z,76.44
2024-02-12T06:01:28.284Z,76.55
2024-02-12T06:03:54.804Z,75.26
2024-02-12T06:06:22.080Z,75.39
2024-02-12T06:08:49.468Z,76.78
2024-02-12T06:11:16.069Z,74.98
2024-02-12T06:13:42.503Z,74.92
2024-02-12T06:16:08.963Z,76.12
2024-02-12T06:18:35.442Z,76.90
2024-02-12T06:21:01.896Z,75.72
2024-02-12T06:23:28.561Z,76.07
2024-02-12T06:25:55.139Z,75.35
2024-02-12T06:28:21.547Z,75.14
2024-02-12T06:30:48.011Z,76.63
2024-02-12T06:33:14.739Z,75.18
2024-02-12T06:35:41.194Z,76.69
2024-02-12T06:38:07.766Z,77.22
2024-02-12T06:40:34.323Z,77.04
2024-02-12T06:43:02.858Z,76.71
2024-02-12T06:45:29.368Z,76.18
2024-02-12T06:47:56.557Z,77.03
2024-02-12T06:50:24.335Z,75.77
2024-02-12T06:52:50.946Z,76.86
2024-02-12T06:55:17.473Z,76.31
2024-02-12T06:57:46.503Z,76.56
2024-02-12T07:00:17.038Z,76.50
2024-02-12T07:02:47.938Z,77.00
2024-02-12T07:05:18.881Z,75.60
2024-02-12T07:07:46.946Z,76.00
2024-02-12T07:10:13.752Z,77.40
2024-02-12T07:12:40.398Z,77.45
2024-02-12T07:15:08.277Z,75.71
2024-02-12T07:17:35.772Z,76.18
2024-02-12T07:20:10.467Z,76.85
2024-02-12T07:22:39.818Z,77.32
2024-02-12T07:25:06.773Z,76.19
2024-02-12T07:27:33.227Z,76.78
2024-02-12T07:30:00.085Z,76.64
2024-02-12T07:32:26.586Z,77.75
2024-02-12T07:34:53.654Z,76.08
2024-02-12T07:37:20.329Z,77.76
2024-02-12T07:39:46.765Z,76.03
2024-02-12T07:42:13.260Z,76.40
2024-02-12T07:44:40.532Z,76.59
2024-02-12T07:47:07.228Z,76.57
2024-02-12T07:49:34.319Z,76.10
2024-02-12T07:52:03.629Z,76.84
2024-02-12T07:54:31.336Z,78.20
2024-02-12T07:56:58.586Z,77.14
2024-02-12T07:59:25.230Z,77.52
2024-02-12T08:01:53.021Z,76.79
2024-02-12T08:04:22.761Z,78.16
2024-02-12T08:06:49.295Z,76.98
2024-02-12T08:09:19.228Z,77.31
2024-02-12T08:11:46.645Z,77.75
2024-02-12T08:14:13.577Z,78.42
2024-02-12T08:16:45.046Z,77.91
2024-02-12T08:19:11.889Z,78.34
2024-02-12T08:21:38.401Z,78.17
2024-02-12T08:24:05.228Z,76.54
2024-02-12T08:26:32.188Z,77.33
2024-02-12T08:28:59.753Z,77.64
2024-02-12T08:31:26.432Z,78.26
2024-02-12T08:33:55.328Z,78.12
2024-02-12T08:36:22.060Z,77.93
2024-02-12T08:38:48.608Z,77.92
2024-02-12T08:41:25.806Z,78.86
2024-02-12T08:43:54.545Z,77.89
2024-02-12T08:46:21.064Z,78.35
2024-02-12T08:48:47.554Z,78.15
2024-02-12T08:51:15.003Z,77.27
2024-02-12T08:53:45.063Z,78.57
2024-02-12T08:56:15.612Z,77.09
2024-02-12T08:58:43.750Z,78.19
2024-02-12T09:01:11.233Z,78.59
2024-02-12T09:03:42.097Z,77.68
2024-02-12T09:06:17.951Z,77.51
2024-02-12T09:08:45.632Z,78.31
2024-02-12T09:11:13.670Z,77.86
2024-02-12T09:13:41.459Z,76.39
2024-02-12T09:16:09.336Z,77.51
2024-02-12T09:18:36.924Z,78.03
2024-02-12T09:21:03.915Z,77.68
2024-02-12T09:23:31.227Z,77.52
2024-02-12T09:25:57.858Z,77.83
2024-02-12T09:28:28.676Z,78.46
2024-02-12T09:30:55.996Z,79.08
2024-02-12T09:33:22.619Z,78.80
2024-02-12T09:35:49.271Z,79.06
2024-02-12T09:38:17.022Z,78.89
2024-02-12T09:40:44.086Z,77.97
2024-02-12T09:43:12.499Z,78.04
2024-02-12T09:45:45.991Z,77.08
2024-02-12T09:48:13.884Z,77.48
2024-02-12T09:50:47.815Z,77.16
2024-02-12T09:53:17.110Z,77.65
2024-02-12T09:55:50.083Z,78.32
2024-02-12T09:58:17.237Z,78.43
2024-02-12T10:00:45.244Z,78.06
2024-02-12T10:03:14.969Z,77.44
2024-02-12T10:05:43.364Z,77.96
2024-02-12T10:08:24.205Z,78.43
2024-02-12T10:10:53.427Z,76.41
2024-02-12T10:13:20.947Z,76.76
2024-02-12T10:15:48.549Z,77.23
2024-02-12T10:18:18.010Z,76.75
2024-02-12T10:20:44.949Z,77.91
2024-02-12T10:23:16.439Z,77.11
2024-02-12T10:25:49.742Z,76.62
2024-02-12T10:28:17.125Z,76.06
2024-02-12T10:30:44.093Z,77.91
2024-02-12T10:33:12.087Z,76.16
2024-02-12T10:35:40.753Z,76.37
2024-02-12T10:38:08.204Z,77.45
2024-02-12T10:41:02.974Z,78.18
2024-02-12T10:43:31.570Z,77.42
2024-02-12T10:45:59.179Z,77.70
2024-02-12T10:48:26.204Z,76.16
2024-02-12T10:50:55.933Z,76.53
2024-02-12T10:53:24.666Z,77.67
2024-02-12T10:55:51.421Z,76.97
2024-02-12T10:58:19.276Z,77.94
2024-02-12T11:01:03.925Z,76.66
2024-02-12T11:03:50.305Z,77.19
2024-02-12T11:06:18.560Z,76.08
2024-02-12T11:08:51.026Z,76.44
2024-02-12T11:11:24.321Z,77.55
2024-02-12T11:13:57.849Z,76.49
2024-02-12T11:16:24.460Z,76.88
2024-02-12T11:18:55.633Z,76.57
2024-02-12T11:21:24.187Z,75.56
2024-02-12T11:23:53.069Z,75.94
2024-02-12T11:26:22.050Z,77.23
2024-02-12T11:28:56.073Z,75.98
2024-02-12T11:31:25.334Z,75.65
2024-02-12T11:33:52.524Z,75.90
2024-02-12T11:36:19.087Z,76.57
2024-02-12T11:38:48.426Z,76.65
2024-02-12T11:41:16.668Z,75.46
2024-02-12T11:43:43.998Z,74.50
2024-02-12T11:46:17.028Z,74.81
2024-02-12T11:48:43.971Z,73.58
2024-02-12T11:51:10.573Z,73.67
2024-02-12T11:53:42.876Z,75.04
2024-02-12T11:56:09.494Z,74.01
2024-02-12T11:58:36.076Z,73.99
2024-02-12T12:01:02.672Z,71.79
2024-02-12T12:03:29.416Z,73.10
2024-02-12T12:05:56.344Z,72.43
2024-02-12T12:08:29.225Z,72.42
2024-02-12T12:11:05.032Z,72.18
2024-02-12T12:13:32.525Z,72.67
2024-02-12T12:15:58.980Z,72.55
2024-02-12T12:18:26.149Z,73.06
2024-02-12T12:20:56.256Z,72.44
2024-02-12T12:23:23.330Z,72.67
2024-02-12T12:25:53.509Z,72.63
2024-02-12T12:28:20.074Z,72.77
2024-02-12T12:30:46.533Z,73.21
2024-02-12T12:33:13.064Z,72.82
2024-02-12T12:35:40.717Z,73.73
2024-02-12T12:38:11.230Z,73.29
2024-02-12T12:40:37.756Z,73.12
2024-02-12T12:43:05.286Z,71.62
2024-02-12T12:45:32.579Z,71.25
2024-02-12T12:47:59.089Z,72.73
2024-02-12T12:50:26.106Z,70.96
2024-02-12T12:52:52.552Z,71.73
2024-02-12T12:55:19.150Z,71.48
2024-02-12T12:57:45.841Z,70.63
2024-02-12T13:00:29.871Z,71.30
2024-02-12T13:02:59.330Z,70.94
2024-02-12T13:05:26.332Z,71.79
2024-02-12T13:08:17.747Z,70.04
2024-02-12T13:10:47.431Z,71.64
2024-02-12T13:13:16.394Z,71.23
2024-02-12T13:15:47.546Z,70.15
2024-02-12T13:18:18.878Z,69.85
2024-02-12T13:20:47.453Z,68.17
2024-02-12T13:23:15.000Z,69.64
2024-02-12T13:25:41.665Z,68.99
2024-02-12T13:28:12.572Z,69.25
2024-02-12T13:30:39.496Z,69.39
2024-02-12T13:33:08.781Z,69.64
2024-02-12T13:35:38.856Z,69.64
2024-02-12T13:38:06.165Z,70.17
2024-02-12T13:40:33.904Z,69.17
2024-02-12T13:43:05.274Z,68.87
2024-02-12T13:45:32.885Z,69.12
2024-02-12T13:47:59.455Z,69.09
2024-02-12T13:50:27.460Z,69.76
2024-02-12T13:52:54.165Z,70.89
2024-02-12T13:55:21.763Z,69.72
2024-02-12T13:57:50.068Z,70.13
2024-02-12T14:00:42.908Z,71.18
2024-02-12T14:03:06.890Z,70.27
2024-02-12T14:05:33.844Z,69.94
2024-02-12T14:08:00.897Z,71.33
2024-02-12T14:10:27.842Z,69.93
2024-02-12T14:12:55.102Z,71.03
2024-02-12T14:16:01.749Z,71.14
2024-02-12T14:18:10.459Z,70.04
2024-02-12T14:20:37.414Z,70.88
2024-02-12T14:23:06.604Z,71.72
2024-02-12T14:25:35.146Z,70.42
2024-02-12T14:28:03.346Z,70.16
2024-02-12T14:30:30.101Z,71.38
2024-02-12T14:32:57.215Z,70.86
2024-02-12T14:35:25.684Z,71.30
2024-02-12T14:37:54.397Z,70.25
2024-02-12T14:40:21.696Z,70.29
2024-02-12T14:42:50.859Z,68.86
2024-02-12T14:45:17.614Z,70.02
2024-02-12T14:47:45.735Z,68.52
2024-02-12T14:50:19.501Z,67.92
2024-02-12T14:52:46.340Z,69.40
2024-02-12T14:55:12.916Z,68.90
2024-02-12T14:57:40.581Z,67.96
2024-02-12T15:00:14.742Z,67.47
2024-02-12T15:02:45.422Z,68.28
2024-02-12T15:05:16.411Z,68.39
2024-02-12T15:07:47.653Z,68.37
2024-02-12T15:10:22.288Z,68.63
2024-02-12T15:12:49.334Z,68.17
2024-02-12T15:15:20.206Z,69.75
2024-02-12T15:17:55.031Z,68.72
2024-02-12T15:20:22.833Z,69.72
2024-02-12T15:22:51.209Z,69.76
2024-02-12T15:25:20.548Z,70.29
2024-02-12T15:27:48.506Z,70.50
2024-02-12T15:30:16.665Z,70.43
2024-02-12T15:32:43.460Z,70.08
2024-02-12T15:35:15.805Z,70.59
2024-02-12T15:37:45.434Z,70.56
2024-02-12T15:40:21.936Z,69.63
2024-02-12T15:42:51.404Z,70.51
2024-02-12T15:45:19.695Z,69.54
2024-02-12T15:47:47.716Z,68.88
2024-02-12T15:50:16.151Z,70.27
2024-02-12T15:52:45.496Z,69.89
2024-02-12T15:55:12.305Z,70.60
2024-02-12T15:57:39.436Z,70.64
2024-02-12T16:00:13.661Z,69.74
2024-02-12T16:02:40.557Z,70.47
2024-02-12T16:05:45.997Z,70.29
2024-02-12T16:08:14.261Z,68.97
2024-02-12T16:10:41.428Z,69.96
2024-02-12T16:13:09.756Z,70.39
2024-02-12T16:15:39.053Z,69.43
2024-02-12T16:18:06.092Z,69.10
2024-02-12T16:20:32.790Z,70.55
2024-02-12T16:22:59.263Z,69.88
2024-02-12T16:25:27.699Z,70.21
2024-02-12T16:27:54.845Z,70.06
2024-02-12T16:30:21.210Z,70.02
2024-02-12T16:32:49.125Z,69.53
2024-02-12T16:35:19.282Z,70.31
2024-02-12T16:37:47.953Z,70.66
2024-02-12T16:40:14.564Z,71.18
2024-02-12T16:42:43.226Z,70.18
2024-02-12T16:45:11.012Z,69.51
2024-02-12T16:47:40.919Z,71.01
2024-02-12T16:50:09.106Z,70.15
2024-02-12T16:52:36.577Z,69.60
2024-02-12T16:55:04.438Z,69.66
2024-02-12T16:57:31.174Z,71.43
2024-02-12T16:59:58.430Z,70.95
2024-02-12T17:02:27.161Z,71.72
2024-02-12T17:04:55.940Z,71.03
2024-02-12T17:07:24.899Z,71.52
2024-02-12T17:09:51.456Z,72.03
2024-02-12T17:12:20.151Z,71.83
2024-02-12T17:14:47.180Z,70.99
2024-02-12T17:17:15.117Z,70.70
2024-02-12T17:19:42.067Z,70.80
2024-02-12T17:22:10.773Z,71.73
2024-02-12T17:24:37.346Z,72.76
2024-02-12T17:27:04.891Z,72.26
2024-02-12T17:29:31.459Z,72.97
2024-02-12T17:31:58.650Z,72.83
2024-02-12T17:34:26.773Z,71.90
2024-02-12T17:36:53.411Z,72.65
2024-02-12T17:39:20.371Z,71.28
2024-02-12T17:41:46.989Z,71.93
2024-02-12T17:44:14.889Z,72.73
2024-02-12T17:46:41.783Z,72.44
2024-02-12T17:49:08.768Z,72.39
2024-02-12T17:51:35.387Z,72.45
2024-02-12T17:54:01.847Z,73.00
2024-02-12T17:56:28.423Z,72.93
2024-02-12T17:58:57.876Z,73.29
2024-02-12T18:01:26.519Z,72.07
2024-02-12T18:03:54.610Z,72.94
2024-02-12T18:06:22.421Z,72.92
2024-02-12T18:08:49.649Z,72.02
2024-02-12T18:11:16.262Z,73.02
2024-02-12T18:13:42.769Z,72.58
2024-02-12T18:16:09.672Z,72.75
2024-02-12T18:18:37.317Z,72.58
2024-02-12T18:21:04.529Z,72.33
2024-02-12T18:23:31.465Z,73.25
2024-02-12T18:26:00.875Z,73.77
2024-02-12T18:28:27.670Z,72.80
2024-02-12T18:30:54.214Z,73.03
2024-02-12T18:33:20.831Z,73.98
2024-02-12T18:35:48.186Z,73.17
2024-02-12T18:38:14.792Z,72.70
2024-02-12T18:40:41.898Z,74.31
2024-02-12T18:43:08.440Z,73.04
2024-02-12T18:45:35.228Z,73.43
2024-02-12T18:48:02.681Z,73.13
2024-02-12T18:50:30.139Z,73.75
2024-02-12T18:52:56.854Z,74.73
2024-02-12T18:55:23.377Z,73.16
2024-02-12T18:57:49.900Z,73.00
2024-02-12T19:00:17.114Z,73.22
2024-02-12T19:02:44.595Z,74.86
2024-02-12T19:05:11.542Z,74.18
2024-02-12T19:07:38.899Z,73.33
2024-02-12T19:10:07.049Z,75.04
2024-02-12T19:12:37.183Z,74.51
2024-02-12T19:15:04.466Z,73.58
2024-02-12T19:17:31.057Z,73.63
2024-02-12T19:19:57.572Z,74.75
2024-02-12T19:22:24.142Z,73.04
2024-02-12T19:24:50.664Z,73.69
2024-02-12T19:27:17.983Z,74.09
2024-02-12T19:29:46.087Z,74.15
2024-02-12T19:32:13.460Z,72.25
2024-02-12T19:34:40.177Z,71.92
2024-02-12T19:37:06.828Z,73.28
2024-02-12T19:39:36.391Z,72.99
2024-02-12T19:42:05.397Z,71.97
2024-02-12T19:44:32.049Z,73.20
2024-02-12T19:46:59.432Z,72.65
2024-02-12T19:49:25.901Z,73.58
2024-02-12T19:51:52.344Z,73.33
2024-02-12T19:54:20.313Z,73.25
2024-02-12T19:56:46.898Z,73.27
2024-02-12T19:59:13.538Z,73.70
2024-02-12T20:01:40.494Z,73.71
2024-02-12T20:04:08.122Z,74.09
2024-02-12T20:06:34.814Z,72.02
2024-02-12T20:09:01.994Z,72.73
2024-02-12T20:11:30.021Z,72.76
2024-02-12T20:13:56.617Z,72.90
2024-02-12T20:16:23.240Z,73.16
2024-02-12T20:18:50.985Z,72.92
2024-02-12T20:21:17.637Z,74.06
2024-02-12T20:23:44.178Z,73.30
2024-02-12T20:26:10.683Z,73.97
2024-02-12T20:28:37.245Z,72.43
2024-02-12T20:31:03.759Z,73.11
2024-02-12T20:33:33.339Z,73.64
2024-02-12T20:36:01.227Z,73.17
2024-02-12T20:38:27.676Z,72.26
2024-02-12T20:40:54.156Z,72.94
2024-02-12T20:43:20.672Z,72.91
2024-02-12T20:45:47.307Z,73.40
2024-02-12T20:48:14.053Z,72.51
2024-02-12T20:50:41.531Z,73.45
2024-02-12T20:53:09.394Z,72.61
2024-02-12T20:55:36.939Z,71.66
2024-02-12T20:58:04.978Z,72.58
2024-02-12T21:00:31.718Z,72.68
2024-02-12T21:02:58.295Z,72.75
2024-02-12T21:05:24.880Z,72.98
2024-02-12T21:07:52.277Z,72.21
2024-02-12T21:10:18.741Z,72.04
2024-02-12T21:12:45.744Z,72.36
2024-02-12T21:15:12.756Z,73.33
2024-02-12T21:17:39.458Z,71.88
2024-02-12T21:20:07.908Z,72.23
2024-02-12T21:22:34.726Z,72.83
2024-02-12T21:25:02.348Z,72.21
2024-02-12T21:27:28.811Z,72.74
2024-02-12T21:29:55.298Z,72.14
2024-02-12T21:32:23.071Z,73.69
2024-02-12T21:34:49.690Z,73.59
2024-02-12T21:37:18.568Z,72.96
2024-02-12T21:39:49.254Z,73.77
2024-02-12T21:42:25.549Z,73.66
2024-02-12T21:44:54.532Z,74.05
2024-02-12T21:47:22.169Z,73.90
2024-02-12T21:49:48.958Z,73.43
2024-02-12T21:52:17.334Z,73.92
2024-02-12T21:54:47.598Z,72.89
2024-02-12T21:57:14.066Z,73.37
2024-02-12T21:59:41.049Z,72.59
2024-02-12T22:02:09.203Z,73.38
2024-02-12T22:04:36.706Z,72.86
2024-02-12T22:07:03.813Z,73.09
2024-02-12T22:09:30.454Z,73.19
2024-02-12T22:11:57.397Z,73.17
2024-02-12T22:14:23.992Z,72.32
2024-02-12T22:16:50.533Z,72.63
2024-02-12T22:19:17.360Z,72.99
2024-02-12T22:21:44.554Z,73.05
2024-02-12T22:24:11.075Z,73.00
2024-02-12T22:26:37.846Z,72.27
2024-02-12T22:29:04.355Z,71.89
2024-02-12T22:31:31.523Z,72.43
2024-02-12T22:33:58.271Z,71.68
2024-02-12T22:36:24.795Z,73.26
2024-02-12T22:38:51.329Z,73.16
2024-02-12T22:41:18.028Z,72.47
2024-02-12T22:43:44.544Z,72.93
2024-02-12T22:46:10.948Z,72.33
2024-02-12T22:48:40.436Z,72.90
2024-02-12T22:51:06.945Z,72.34
2024-02-12T22:53:34.890Z,72.70
2024-02-12T22:56:01.644Z,72.14
2024-02-12T22:58:28.132Z,72.04
2024-02-12T23:00:56.744Z,72.71
2024-02-12T23:03:24.739Z,72.00
2024-02-12T23:05:51.421Z,72.43
2024-02-12T23:08:19.549Z,72.40
2024-02-12T23:10:46.444Z,72.65
2024-02-12T23:13:13.517Z,72.65
2024-02-12T23:15:40.984Z,72.44
2024-02-12T23:18:11.342Z,73.06
2024-02-12T23:20:38.633Z,73.11
2024-02-12T23:23:05.723Z,73.00
2024-02-12T23:25:33.791Z,73.02
2024-02-12T23:28:02.481Z,72.87
2024-02-12T23:30:29.725Z,72.82
2024-02-12T23:32:56.592Z,72.79
2024-02-12T23:35:24.194Z,73.21
2024-02-12T23:37:50.656Z,72.94
2024-02-12T23:40:17.606Z,72.36
2024-02-12T23:42:45.173Z,72.80
2024-02-12T23:45:15.607Z,72.28
2024-02-12T23:47:42.912Z,72.75
2024-02-12T23:50:13.047Z,72.11
2024-02-12T23:52:40.856Z,72.16
2024-02-12T23:55:10.792Z,72.28
2024-02-12T23:57:39.848Z,71.97
